sensor_id;sensor_type;location;lat;lon;timestamp;P1;durP1;ratioP1;P2;durP2;ratioP2
13057;SDS011;6595;49.578;11.012;2023-08-24T00:00:24;8.9;;;5.3;;
13057;SDS011;6595;49.578;11.012;2023-08-24T00:02:23;8.9;;;5.3;;
13057;SDS011;6595;49.578;11.012;2023-08-24T00:04:24;8.4;;;5.7;;
13057;SDS011;6595;49.578;11.012;2023-08-24T00:06:24;8.0;;;5.6;;
13057;SDS011;6595;49.578;11.012;2023-08-24T00:08:23;8.0;;;5.6;;
13057;SDS011;6595;49.578;11.012;2023-08-24T00:10:23;7.7;;;5.4;;
13057;SDS011;6595;49.578;11.012;2023-08-24T00:12:23;7.8;;;5.5;;
13057;SDS011;6595;49.578;11.012;2023-08-24T00:14:23;6.6;;;5.1;;
13057;SDS011;6595;49.578;11.012;2023-08-24T00:16:24;8.4;;;5.5;;
13057;SDS011;6595;49.578;11.012;2023-08-24T00:18:24;7.6;;;5.1;;
13057;SDS011;6595;49.578;11.012;2023-08-24T00:20:23;7.6;;;5.1;;
13057;SDS011;6595;49.578;11.012;2023-08-24T00:22:23;9.2;;;5.5;;
13057;SDS011;6595;49.578;11.012;2023-08-24T00:24:23;7.6;;;5.5;;
13057;SDS011;6595;49.578;11.012;2023-08-24T00:26:23;7.6;;;5.4;;
13057;SDS011;6595;49.578;11.012;2023-08-24T00:28:24;7.6;;;5.4;;
13057;SDS011;6595;49.578;11.012;2023-08-24T00:30:23;11.3;;;6.1;;
13057;SDS011;6595;49.578;11.012;2023-08-24T00:32:23;6.6;;;5.4;;
13057;SDS011;6595;49.578;11.012;2023-08-24T00:34:23;8.8;;;5.7;;
13057;SDS011;6595;49.578;11.012;2023-08-24T00:36:24;7.8;;;5.6;;
13057;SDS011;6595;49.578;11.012;2023-08-24T00:38:23;7.8;;;5.6;;
13057;SDS011;6595;49.578;11.012;2023-08-24T00:40:23;7.4;;;5.4;;
13057;SDS011;6595;49.578;11.012;2023-08-24T00:42:23;6.4;;;5.2;;
13057;SDS011;6595;49.578;11.012;2023-08-24T00:44:23;6.4;;;5.2;;
13057;SDS011;6595;49.578;11.012;2023-08-24T00:46:26;9.4;;;5.7;;
13057;SDS011;6595;49.578;11.012;2023-08-24T00:48:24;9.2;;;5.8;;
13057;SDS011;6595;49.578;11.012;2023-08-24T00:50:23;8.0;;;5.4;;
13057;SDS011;6595;49.578;11.012;2023-08-24T00:52:24;9.0;;;5.7;;
13057;SDS011;6595;49.578;11.012;2023-08-24T00:54:23;9.0;;;5.7;;
13057;SDS011;6595;49.578;11.012;2023-08-24T00:56:24;8.3;;;5.5;;
13057;SDS011;6595;49.578;11.012;2023-08-24T00:58:24;7.9;;;5.4;;
13057;SDS011;6595;49.578;11.012;2023-08-24T01:00:24;7.8;;;5.3;;
13057;SDS011;6595;49.578;11.012;2023-08-24T01:02:23;8.2;;;5.4;;
13057;SDS011;6595;49.578;11.012;2023-08-24T01:04:23;7.7;;;5.4;;
13057;SDS011;6595;49.578;11.012;2023-08-24T01:06:23;7.7;;;5.4;;
13057;SDS011;6595;49.578;11.012;2023-08-24T01:08:23;7.7;;;5.4;;
13057;SDS011;6595;49.578;11.012;2023-08-24T01:10:23;10.8;;;5.4;;
13057;SDS011;6595;49.578;11.012;2023-08-24T01:12:24;7.6;;;5.3;;
13057;SDS011;6595;49.578;11.012;2023-08-24T01:14:26;7.6;;;5.3;;
13057;SDS011;6595;49.578;11.012;2023-08-24T01:16:25;7.6;;;5.7;;
13057;SDS011;6595;49.578;11.012;2023-08-24T01:18:24;7.6;;;5.7;;
13057;SDS011;6595;49.578;11.012;2023-08-24T01:20:24;8.8;;;5.6;;
13057;SDS011;6595;49.578;11.012;2023-08-24T01:22:27;8.8;;;5.6;;
13057;SDS011;6595;49.578;11.012;2023-08-24T01:24:26;9.7;;;5.9;;
13057;SDS011;6595;49.578;11.012;2023-08-24T01:26:23;8.5;;;5.4;;
13057;SDS011;6595;49.578;11.012;2023-08-24T01:28:24;9.4;;;5.7;;
13057;SDS011;6595;49.578;11.012;2023-08-24T01:30:24;8.6;;;5.5;;
13057;SDS011;6595;49.578;11.012;2023-08-24T01:32:23;7.3;;;5.7;;
13057;SDS011;6595;49.578;11.012;2023-08-24T01:34:23;7.3;;;5.7;;
13057;SDS011;6595;49.578;11.012;2023-08-24T01:36:23;9.2;;;5.6;;
13057;SDS011;6595;49.578;11.012;2023-08-24T01:38:23;9.2;;;5.6;;
13057;SDS011;6595;49.578;11.012;2023-08-24T01:40:26;9.8;;;5.9;;
13057;SDS011;6595;49.578;11.012;2023-08-24T01:42:23;9.1;;;5.7;;
13057;SDS011;6595;49.578;11.012;2023-08-24T01:44:23;9.1;;;5.7;;
13057;SDS011;6595;49.578;11.012;2023-08-24T01:46:23;6.9;;;5.8;;
13057;SDS011;6595;49.578;11.012;2023-08-24T01:48:23;8.8;;;5.8;;
13057;SDS011;6595;49.578;11.012;2023-08-24T01:50:23;9.5;;;5.9;;
13057;SDS011;6595;49.578;11.012;2023-08-24T01:52:24;8.4;;;5.8;;
13057;SDS011;6595;49.578;11.012;2023-08-24T01:54:23;10.2;;;6.0;;
13057;SDS011;6595;49.578;11.012;2023-08-24T01:56:23;10.2;;;6.0;;
13057;SDS011;6595;49.578;11.012;2023-08-24T01:58:23;8.4;;;5.9;;
13057;SDS011;6595;49.578;11.012;2023-08-24T02:00:23;8.6;;;6.2;;
13057;SDS011;6595;49.578;11.012;2023-08-24T02:02:24;7.5;;;5.8;;
13057;SDS011;6595;49.578;11.012;2023-08-24T02:04:23;7.5;;;5.8;;
13057;SDS011;6595;49.578;11.012;2023-08-24T02:06:23;9.2;;;5.9;;
13057;SDS011;6595;49.578;11.012;2023-08-24T02:08:23;9.2;;;5.9;;
13057;SDS011;6595;49.578;11.012;2023-08-24T02:10:24;9.2;;;5.9;;
13057;SDS011;6595;49.578;11.012;2023-08-24T02:12:23;9.2;;;5.9;;
13057;SDS011;6595;49.578;11.012;2023-08-24T02:14:23;8.2;;;6.2;;
13057;SDS011;6595;49.578;11.012;2023-08-24T02:16:23;6.9;;;5.8;;
13057;SDS011;6595;49.578;11.012;2023-08-24T02:18:24;9.3;;;5.7;;
13057;SDS011;6595;49.578;11.012;2023-08-24T02:20:24;9.7;;;6.1;;
13057;SDS011;6595;49.578;11.012;2023-08-24T02:22:24;9.7;;;6.1;;
13057;SDS011;6595;49.578;11.012;2023-08-24T02:24:24;8.9;;;6.0;;
13057;SDS011;6595;49.578;11.012;2023-08-24T02:26:24;6.9;;;5.9;;
13057;SDS011;6595;49.578;11.012;2023-08-24T02:28:23;9.2;;;5.8;;
13057;SDS011;6595;49.578;11.012;2023-08-24T02:30:23;9.3;;;5.7;;
13057;SDS011;6595;49.578;11.012;2023-08-24T02:32:23;9.3;;;5.7;;
13057;SDS011;6595;49.578;11.012;2023-08-24T02:34:23;7.6;;;5.8;;
13057;SDS011;6595;49.578;11.012;2023-08-24T02:36:24;7.6;;;5.8;;
13057;SDS011;6595;49.578;11.012;2023-08-24T02:38:23;8.8;;;5.9;;
13057;SDS011;6595;49.578;11.012;2023-08-24T02:40:23;8.7;;;5.8;;
13057;SDS011;6595;49.578;11.012;2023-08-24T02:42:23;8.7;;;5.8;;
13057;SDS011;6595;49.578;11.012;2023-08-24T02:44:23;8.0;;;6.0;;
13057;SDS011;6595;49.578;11.012;2023-08-24T02:46:24;8.4;;;5.7;;
13057;SDS011;6595;49.578;11.012;2023-08-24T02:48:24;9.1;;;6.1;;
13057;SDS011;6595;49.578;11.012;2023-08-24T02:50:23;9.1;;;6.1;;
13057;SDS011;6595;49.578;11.012;2023-08-24T02:52:23;8.9;;;6.1;;
13057;SDS011;6595;49.578;11.012;2023-08-24T02:54:23;8.7;;;6.0;;
13057;SDS011;6595;49.578;11.012;2023-08-24T02:56:23;7.2;;;6.1;;
13057;SDS011;6595;49.578;11.012;2023-08-24T02:58:24;8.6;;;6.0;;
13057;SDS011;6595;49.578;11.012;2023-08-24T03:00:23;8.6;;;6.0;;
13057;SDS011;6595;49.578;11.012;2023-08-24T03:02:23;8.6;;;6.0;;
13057;SDS011;6595;49.578;11.012;2023-08-24T03:04:23;8.0;;;6.0;;
13057;SDS011;6595;49.578;11.012;2023-08-24T03:06:23;8.3;;;6.1;;
13057;SDS011;6595;49.578;11.012;2023-08-24T03:08:24;8.3;;;6.1;;
13057;SDS011;6595;49.578;11.012;2023-08-24T03:10:24;7.8;;;5.8;;
13057;SDS011;6595;49.578;11.012;2023-08-24T03:12:23;8.2;;;6.0;;
13057;SDS011;6595;49.578;11.012;2023-08-24T03:14:23;8.2;;;6.0;;
13057;SDS011;6595;49.578;11.012;2023-08-24T03:16:23;8.6;;;6.2;;
13057;SDS011;6595;49.578;11.012;2023-08-24T03:18:23;7.7;;;6.1;;
13057;SDS011;6595;49.578;11.012;2023-08-24T03:20:24;7.7;;;6.1;;
13057;SDS011;6595;49.578;11.012;2023-08-24T03:22:24;7.9;;;5.8;;
13057;SDS011;6595;49.578;11.012;2023-08-24T03:24:23;7.9;;;5.9;;
13057;SDS011;6595;49.578;11.012;2023-08-24T03:26:23;7.9;;;5.9;;
13057;SDS011;6595;49.578;11.012;2023-08-24T03:28:23;7.7;;;6.0;;
13057;SDS011;6595;49.578;11.012;2023-08-24T03:30:23;8.8;;;6.0;;
13057;SDS011;6595;49.578;11.012;2023-08-24T03:32:23;7.9;;;6.0;;
13057;SDS011;6595;49.578;11.012;2023-08-24T03:34:23;7.8;;;5.8;;
13057;SDS011;6595;49.578;11.012;2023-08-24T03:36:23;8.6;;;6.1;;
13057;SDS011;6595;49.578;11.012;2023-08-24T03:38:24;7.0;;;6.3;;
13057;SDS011;6595;49.578;11.012;2023-08-24T03:40:24;7.0;;;6.3;;
13057;SDS011;6595;49.578;11.012;2023-08-24T03:42:24;7.6;;;5.8;;
13057;SDS011;6595;49.578;11.012;2023-08-24T03:44:24;9.6;;;5.9;;
13057;SDS011;6595;49.578;11.012;2023-08-24T03:46:23;9.6;;;5.9;;
13057;SDS011;6595;49.578;11.012;2023-08-24T03:48:23;8.4;;;6.2;;
13057;SDS011;6595;49.578;11.012;2023-08-24T03:50:23;8.0;;;6.0;;
13057;SDS011;6595;49.578;11.012;2023-08-24T03:52:24;7.4;;;6.0;;
13057;SDS011;6595;49.578;11.012;2023-08-24T03:54:23;8.3;;;5.8;;
13057;SDS011;6595;49.578;11.012;2023-08-24T03:56:23;7.8;;;5.9;;
13057;SDS011;6595;49.578;11.012;2023-08-24T03:58:23;8.4;;;6.2;;
13057;SDS011;6595;49.578;11.012;2023-08-24T04:00:23;8.4;;;6.2;;
13057;SDS011;6595;49.578;11.012;2023-08-24T04:02:24;9.8;;;5.8;;
13057;SDS011;6595;49.578;11.012;2023-08-24T04:04:23;8.0;;;5.5;;
13057;SDS011;6595;49.578;11.012;2023-08-24T04:06:23;7.8;;;5.6;;
13057;SDS011;6595;49.578;11.012;2023-08-24T04:08:23;7.8;;;5.6;;
13057;SDS011;6595;49.578;11.012;2023-08-24T04:10:23;8.9;;;5.7;;
13057;SDS011;6595;49.578;11.012;2023-08-24T04:12:23;11.7;;;5.9;;
13057;SDS011;6595;49.578;11.012;2023-08-24T04:14:24;7.4;;;5.8;;
13057;SDS011;6595;49.578;11.012;2023-08-24T04:16:24;8.9;;;5.6;;
13057;SDS011;6595;49.578;11.012;2023-08-24T04:18:23;8.9;;;5.6;;
13057;SDS011;6595;49.578;11.012;2023-08-24T04:20:23;9.6;;;5.3;;
13057;SDS011;6595;49.578;11.012;2023-08-24T04:22:23;8.2;;;6.2;;
13057;SDS011;6595;49.578;11.012;2023-08-24T04:24:23;8.1;;;5.7;;
13057;SDS011;6595;49.578;11.012;2023-08-24T04:26:23;6.6;;;5.6;;
13057;SDS011;6595;49.578;11.012;2023-08-24T04:28:23;6.6;;;5.6;;
13057;SDS011;6595;49.578;11.012;2023-08-24T04:30:23;8.4;;;5.6;;
13057;SDS011;6595;49.578;11.012;2023-08-24T04:32:23;7.4;;;5.5;;
13057;SDS011;6595;49.578;11.012;2023-08-24T04:34:23;6.9;;;5.4;;
13057;SDS011;6595;49.578;11.012;2023-08-24T04:36:24;7.1;;;5.2;;
13057;SDS011;6595;49.578;11.012;2023-08-24T04:38:24;7.1;;;5.2;;
13057;SDS011;6595;49.578;11.012;2023-08-24T04:40:24;9.1;;;5.7;;
13057;SDS011;6595;49.578;11.012;2023-08-24T04:42:23;6.9;;;5.7;;
13057;SDS011;6595;49.578;11.012;2023-08-24T04:44:23;8.2;;;5.7;;
13057;SDS011;6595;49.578;11.012;2023-08-24T04:46:23;8.9;;;6.0;;
13057;SDS011;6595;49.578;11.012;2023-08-24T04:48:24;8.9;;;6.0;;
13057;SDS011;6595;49.578;11.012;2023-08-24T04:50:24;10.1;;;5.9;;
13057;SDS011;6595;49.578;11.012;2023-08-24T04:52:24;10.1;;;5.9;;
13057;SDS011;6595;49.578;11.012;2023-08-24T04:54:23;8.6;;;6.0;;
13057;SDS011;6595;49.578;11.012;2023-08-24T04:56:23;8.6;;;6.0;;
13057;SDS011;6595;49.578;11.012;2023-08-24T04:58:23;8.0;;;5.7;;
13057;SDS011;6595;49.578;11.012;2023-08-24T05:00:23;8.4;;;5.7;;
13057;SDS011;6595;49.578;11.012;2023-08-24T05:02:24;7.3;;;5.8;;
13057;SDS011;6595;49.578;11.012;2023-08-24T05:04:23;7.3;;;5.8;;
13057;SDS011;6595;49.578;11.012;2023-08-24T05:06:23;10.7;;;6.3;;
13057;SDS011;6595;49.578;11.012;2023-08-24T05:08:23;7.0;;;5.9;;
13057;SDS011;6595;49.578;11.012;2023-08-24T05:10:24;7.9;;;6.1;;
13057;SDS011;6595;49.578;11.012;2023-08-24T05:12:23;7.9;;;6.1;;
13057;SDS011;6595;49.578;11.012;2023-08-24T05:14:23;9.1;;;6.2;;
13057;SDS011;6595;49.578;11.012;2023-08-24T05:16:24;9.1;;;6.2;;
13057;SDS011;6595;49.578;11.012;2023-08-24T05:18:23;8.0;;;6.0;;
13057;SDS011;6595;49.578;11.012;2023-08-24T05:20:23;6.6;;;5.6;;
13057;SDS011;6595;49.578;11.012;2023-08-24T05:22:23;7.4;;;6.0;;
13057;SDS011;6595;49.578;11.012;2023-08-24T05:24:23;7.4;;;6.0;;
13057;SDS011;6595;49.578;11.012;2023-08-24T05:26:24;7.3;;;5.8;;
13057;SDS011;6595;49.578;11.012;2023-08-24T05:28:23;8.3;;;6.2;;
13057;SDS011;6595;49.578;11.012;2023-08-24T05:30:23;8.3;;;6.2;;
13057;SDS011;6595;49.578;11.012;2023-08-24T05:32:23;9.6;;;6.0;;
13057;SDS011;6595;49.578;11.012;2023-08-24T05:34:23;9.6;;;6.0;;
13057;SDS011;6595;49.578;11.012;2023-08-24T05:36:23;14.3;;;6.0;;
13057;SDS011;6595;49.578;11.012;2023-08-24T05:38:24;8.9;;;6.4;;
13057;SDS011;6595;49.578;11.012;2023-08-24T05:40:24;9.3;;;6.5;;
13057;SDS011;6595;49.578;11.012;2023-08-24T05:42:24;8.3;;;6.3;;
13057;SDS011;6595;49.578;11.012;2023-08-24T05:44:23;8.3;;;6.3;;
13057;SDS011;6595;49.578;11.012;2023-08-24T05:46:23;10.0;;;5.5;;
13057;SDS011;6595;49.578;11.012;2023-08-24T05:48:23;7.3;;;5.8;;
13057;SDS011;6595;49.578;11.012;2023-08-24T05:50:24;7.1;;;5.6;;
13057;SDS011;6595;49.578;11.012;2023-08-24T05:52:23;7.1;;;5.6;;
13057;SDS011;6595;49.578;11.012;2023-08-24T05:54:24;8.7;;;6.6;;
13057;SDS011;6595;49.578;11.012;2023-08-24T05:56:24;8.0;;;5.5;;
13057;SDS011;6595;49.578;11.012;2023-08-24T05:58:23;6.8;;;5.4;;
13057;SDS011;6595;49.578;11.012;2023-08-24T06:00:23;9.5;;;5.3;;
13057;SDS011;6595;49.578;11.012;2023-08-24T06:02:23;7.9;;;5.2;;
13057;SDS011;6595;49.578;11.012;2023-08-24T06:04:23;7.9;;;5.2;;
13057;SDS011;6595;49.578;11.012;2023-08-24T06:06:23;8.5;;;5.3;;
13057;SDS011;6595;49.578;11.012;2023-08-24T06:08:23;9.0;;;5.8;;
13057;SDS011;6595;49.578;11.012;2023-08-24T06:10:24;9.0;;;5.8;;
13057;SDS011;6595;49.578;11.012;2023-08-24T06:12:23;9.6;;;5.2;;
13057;SDS011;6595;49.578;11.012;2023-08-24T06:14:23;9.6;;;5.2;;
13057;SDS011;6595;49.578;11.012;2023-08-24T06:16:23;9.6;;;5.2;;
13057;SDS011;6595;49.578;11.012;2023-08-24T06:18:24;7.2;;;4.9;;
13057;SDS011;6595;49.578;11.012;2023-08-24T06:20:24;7.2;;;4.9;;
13057;SDS011;6595;49.578;11.012;2023-08-24T06:22:24;7.0;;;4.9;;
13057;SDS011;6595;49.578;11.012;2023-08-24T06:24:23;7.0;;;4.9;;
13057;SDS011;6595;49.578;11.012;2023-08-24T06:26:23;6.6;;;5.1;;
13057;SDS011;6595;49.578;11.012;2023-08-24T06:28:23;8.0;;;5.1;;
13057;SDS011;6595;49.578;11.012;2023-08-24T06:30:23;8.6;;;5.4;;
13057;SDS011;6595;49.578;11.012;2023-08-24T06:32:23;8.6;;;5.4;;
13057;SDS011;6595;49.578;11.012;2023-08-24T06:34:24;6.6;;;4.9;;
13057;SDS011;6595;49.578;11.012;2023-08-24T06:36:23;7.4;;;5.3;;
13057;SDS011;6595;49.578;11.012;2023-08-24T06:38:23;10.4;;;5.7;;
13057;SDS011;6595;49.578;11.012;2023-08-24T06:40:23;10.4;;;5.7;;
13057;SDS011;6595;49.578;11.012;2023-08-24T06:42:23;8.0;;;5.1;;
13057;SDS011;6595;49.578;11.012;2023-08-24T06:44:23;6.4;;;4.9;;
13057;SDS011;6595;49.578;11.012;2023-08-24T06:46:23;6.4;;;4.9;;
13057;SDS011;6595;49.578;11.012;2023-08-24T06:48:23;8.5;;;5.2;;
13057;SDS011;6595;49.578;11.012;2023-08-24T06:50:24;8.5;;;5.2;;
13057;SDS011;6595;49.578;11.012;2023-08-24T06:52:23;8.6;;;5.6;;
13057;SDS011;6595;49.578;11.012;2023-08-24T06:54:24;8.6;;;5.6;;
13057;SDS011;6595;49.578;11.012;2023-08-24T06:56:23;8.6;;;5.0;;
13057;SDS011;6595;49.578;11.012;2023-08-24T06:58:23;10.0;;;5.1;;
13057;SDS011;6595;49.578;11.012;2023-08-24T07:00:23;10.6;;;5.3;;
13057;SDS011;6595;49.578;11.012;2023-08-24T07:02:23;11.6;;;5.3;;
13057;SDS011;6595;49.578;11.012;2023-08-24T07:04:24;11.6;;;5.3;;
13057;SDS011;6595;49.578;11.012;2023-08-24T07:06:23;8.7;;;4.9;;
13057;SDS011;6595;49.578;11.012;2023-08-24T07:08:24;10.7;;;5.4;;
13057;SDS011;6595;49.578;11.012;2023-08-24T07:10:24;10.7;;;5.4;;
13057;SDS011;6595;49.578;11.012;2023-08-24T07:12:23;8.0;;;5.0;;
13057;SDS011;6595;49.578;11.012;2023-08-24T07:14:23;9.1;;;5.0;;
13057;SDS011;6595;49.578;11.012;2023-08-24T07:16:23;8.1;;;4.9;;
13057;SDS011;6595;49.578;11.012;2023-08-24T07:18:24;8.3;;;5.1;;
13057;SDS011;6595;49.578;11.012;2023-08-24T07:20:24;10.4;;;5.1;;
13057;SDS011;6595;49.578;11.012;2023-08-24T07:22:23;10.4;;;5.1;;
13057;SDS011;6595;49.578;11.012;2023-08-24T07:24:23;6.5;;;5.0;;
13057;SDS011;6595;49.578;11.012;2023-08-24T07:26:23;9.8;;;5.6;;
13057;SDS011;6595;49.578;11.012;2023-08-24T07:28:24;9.0;;;5.4;;
13057;SDS011;6595;49.578;11.012;2023-08-24T07:30:24;9.0;;;5.4;;
13057;SDS011;6595;49.578;11.012;2023-08-24T07:32:23;9.0;;;5.4;;
13057;SDS011;6595;49.578;11.012;2023-08-24T07:34:23;8.2;;;5.1;;
13057;SDS011;6595;49.578;11.012;2023-08-24T07:36:23;9.0;;;5.5;;
13057;SDS011;6595;49.578;11.012;2023-08-24T07:38:23;6.6;;;5.2;;
13057;SDS011;6595;49.578;11.012;2023-08-24T07:40:24;6.6;;;5.2;;
13057;SDS011;6595;49.578;11.012;2023-08-24T07:42:23;7.6;;;5.2;;
13057;SDS011;6595;49.578;11.012;2023-08-24T07:44:23;10.6;;;5.3;;
13057;SDS011;6595;49.578;11.012;2023-08-24T07:46:23;6.4;;;5.3;;
13057;SDS011;6595;49.578;11.012;2023-08-24T07:48:23;10.2;;;5.3;;
13057;SDS011;6595;49.578;11.012;2023-08-24T07:50:23;10.2;;;5.3;;
13057;SDS011;6595;49.578;11.012;2023-08-24T07:52:23;10.2;;;5.3;;
13057;SDS011;6595;49.578;11.012;2023-08-24T07:54:24;10.8;;;5.5;;
13057;SDS011;6595;49.578;11.012;2023-08-24T07:56:24;11.6;;;5.4;;
13057;SDS011;6595;49.578;11.012;2023-08-24T07:58:24;8.9;;;5.3;;
13057;SDS011;6595;49.578;11.012;2023-08-24T08:00:23;8.9;;;5.3;;
13057;SDS011;6595;49.578;11.012;2023-08-24T08:02:23;8.6;;;5.4;;
13057;SDS011;6595;49.578;11.012;2023-08-24T08:04:23;7.8;;;5.2;;
13057;SDS011;6595;49.578;11.012;2023-08-24T08:06:24;8.6;;;4.9;;
13057;SDS011;6595;49.578;11.012;2023-08-24T08:08:23;8.6;;;4.9;;
13057;SDS011;6595;49.578;11.012;2023-08-24T08:10:23;6.9;;;5.1;;
13057;SDS011;6595;49.578;11.012;2023-08-24T08:12:23;8.4;;;5.5;;
13057;SDS011;6595;49.578;11.012;2023-08-24T08:14:23;11.8;;;5.1;;
13057;SDS011;6595;49.578;11.012;2023-08-24T08:16:23;9.6;;;5.4;;
13057;SDS011;6595;49.578;11.012;2023-08-24T08:18:23;9.6;;;5.4;;
13057;SDS011;6595;49.578;11.012;2023-08-24T08:20:24;7.8;;;5.4;;
13057;SDS011;6595;49.578;11.012;2023-08-24T08:22:24;8.3;;;5.2;;
13057;SDS011;6595;49.578;11.012;2023-08-24T08:24:23;7.6;;;5.0;;
13057;SDS011;6595;49.578;11.012;2023-08-24T08:26:23;10.7;;;4.9;;
13057;SDS011;6595;49.578;11.012;2023-08-24T08:28:23;10.7;;;4.9;;
13057;SDS011;6595;49.578;11.012;2023-08-24T08:30:23;9.3;;;4.8;;
13057;SDS011;6595;49.578;11.012;2023-08-24T08:32:23;9.1;;;5.2;;
13057;SDS011;6595;49.578;11.012;2023-08-24T08:34:24;5.7;;;4.4;;
13057;SDS011;6595;49.578;11.012;2023-08-24T08:36:23;5.7;;;4.4;;
13057;SDS011;6595;49.578;11.012;2023-08-24T08:38:23;7.9;;;4.6;;
13057;SDS011;6595;49.578;11.012;2023-08-24T08:40:23;7.3;;;4.8;;
13057;SDS011;6595;49.578;11.012;2023-08-24T08:42:23;8.8;;;5.5;;
13057;SDS011;6595;49.578;11.012;2023-08-24T08:44:23;8.8;;;5.5;;
13057;SDS011;6595;49.578;11.012;2023-08-24T08:46:23;6.9;;;4.4;;
13057;SDS011;6595;49.578;11.012;2023-08-24T08:48:24;9.8;;;4.8;;
13057;SDS011;6595;49.578;11.012;2023-08-24T08:50:24;7.7;;;4.7;;
13057;SDS011;6595;49.578;11.012;2023-08-24T08:52:23;8.2;;;4.4;;
13057;SDS011;6595;49.578;11.012;2023-08-24T08:54:23;8.8;;;4.8;;
13057;SDS011;6595;49.578;11.012;2023-08-24T08:56:23;8.8;;;4.8;;
13057;SDS011;6595;49.578;11.012;2023-08-24T08:58:23;6.9;;;4.5;;
13057;SDS011;6595;49.578;11.012;2023-08-24T09:00:24;6.8;;;4.2;;
13057;SDS011;6595;49.578;11.012;2023-08-24T09:02:23;6.3;;;4.4;;
13057;SDS011;6595;49.578;11.012;2023-08-24T09:04:23;7.8;;;4.1;;
13057;SDS011;6595;49.578;11.012;2023-08-24T09:06:23;7.8;;;4.1;;
13057;SDS011;6595;49.578;11.012;2023-08-24T09:08:23;7.0;;;4.2;;
13057;SDS011;6595;49.578;11.012;2023-08-24T09:10:23;6.7;;;4.4;;
13057;SDS011;6595;49.578;11.012;2023-08-24T09:12:23;5.5;;;4.2;;
13057;SDS011;6595;49.578;11.012;2023-08-24T09:14:23;5.5;;;4.2;;
13057;SDS011;6595;49.578;11.012;2023-08-24T09:16:24;5.2;;;4.2;;
13057;SDS011;6595;49.578;11.012;2023-08-24T09:18:24;4.9;;;3.7;;
13057;SDS011;6595;49.578;11.012;2023-08-24T09:20:23;7.0;;;4.2;;
13057;SDS011;6595;49.578;11.012;2023-08-24T09:22:23;8.1;;;4.2;;
13057;SDS011;6595;49.578;11.012;2023-08-24T09:24:28;7.5;;;4.1;;
13057;SDS011;6595;49.578;11.012;2023-08-24T09:26:31;7.5;;;4.1;;
13057;SDS011;6595;49.578;11.012;2023-08-24T09:28:23;6.5;;;3.9;;
13057;SDS011;6595;49.578;11.012;2023-08-24T09:30:25;7.4;;;4.1;;
13057;SDS011;6595;49.578;11.012;2023-08-24T09:32:24;6.5;;;4.0;;
13057;SDS011;6595;49.578;11.012;2023-08-24T09:34:24;5.0;;;3.9;;
13057;SDS011;6595;49.578;11.012;2023-08-24T09:36:23;5.0;;;3.9;;
13057;SDS011;6595;49.578;11.012;2023-08-24T09:38:23;6.1;;;3.9;;
13057;SDS011;6595;49.578;11.012;2023-08-24T09:40:24;7.2;;;3.9;;
13057;SDS011;6595;49.578;11.012;2023-08-24T09:42:24;5.6;;;3.8;;
13057;SDS011;6595;49.578;11.012;2023-08-24T09:44:23;10.6;;;5.3;;
13057;SDS011;6595;49.578;11.012;2023-08-24T09:46:23;10.6;;;5.3;;
13057;SDS011;6595;49.578;11.012;2023-08-24T09:48:23;6.1;;;3.8;;
13057;SDS011;6595;49.578;11.012;2023-08-24T09:50:23;5.9;;;3.5;;
13057;SDS011;6595;49.578;11.012;2023-08-24T09:52:23;5.8;;;3.6;;
13057;SDS011;6595;49.578;11.012;2023-08-24T09:54:24;5.8;;;3.6;;
13057;SDS011;6595;49.578;11.012;2023-08-24T09:56:23;5.6;;;3.7;;
13057;SDS011;6595;49.578;11.012;2023-08-24T09:58:24;6.0;;;3.9;;
13057;SDS011;6595;49.578;11.012;2023-08-24T10:00:23;6.2;;;4.5;;
13057;SDS011;6595;49.578;11.012;2023-08-24T10:02:23;6.9;;;3.5;;
13057;SDS011;6595;49.578;11.012;2023-08-24T10:04:24;6.9;;;3.5;;
13057;SDS011;6595;49.578;11.012;2023-08-24T10:06:23;6.0;;;3.4;;
13057;SDS011;6595;49.578;11.012;2023-08-24T10:08:26;5.6;;;3.0;;
13057;SDS011;6595;49.578;11.012;2023-08-24T10:10:24;5.5;;;3.1;;
13057;SDS011;6595;49.578;11.012;2023-08-24T10:12:24;4.9;;;3.1;;
13057;SDS011;6595;49.578;11.012;2023-08-24T10:14:24;4.9;;;3.1;;
13057;SDS011;6595;49.578;11.012;2023-08-24T10:16:23;5.9;;;3.3;;
13057;SDS011;6595;49.578;11.012;2023-08-24T10:18:23;6.3;;;3.1;;
13057;SDS011;6595;49.578;11.012;2023-08-24T10:20:23;5.7;;;3.5;;
13057;SDS011;6595;49.578;11.012;2023-08-24T10:22:23;5.7;;;3.5;;
13057;SDS011;6595;49.578;11.012;2023-08-24T10:24:23;4.8;;;3.0;;
13057;SDS011;6595;49.578;11.012;2023-08-24T10:26:23;3.8;;;2.8;;
13057;SDS011;6595;49.578;11.012;2023-08-24T10:28:24;4.7;;;3.1;;
13057;SDS011;6595;49.578;11.012;2023-08-24T10:30:23;4.7;;;3.1;;
13057;SDS011;6595;49.578;11.012;2023-08-24T10:32:24;8.2;;;3.1;;
13057;SDS011;6595;49.578;11.012;2023-08-24T10:34:23;5.9;;;3.0;;
13057;SDS011;6595;49.578;11.012;2023-08-24T10:36:24;5.3;;;3.4;;
13057;SDS011;6595;49.578;11.012;2023-08-24T10:38:24;5.9;;;3.6;;
13057;SDS011;6595;49.578;11.012;2023-08-24T10:40:31;4.5;;;2.9;;
13057;SDS011;6595;49.578;11.012;2023-08-24T10:42:23;4.4;;;3.1;;
13057;SDS011;6595;49.578;11.012;2023-08-24T10:44:24;4.4;;;3.1;;
13057;SDS011;6595;49.578;11.012;2023-08-24T10:46:24;6.1;;;3.6;;
13057;SDS011;6595;49.578;11.012;2023-08-24T10:48:23;6.0;;;3.7;;
13057;SDS011;6595;49.578;11.012;2023-08-24T10:50:23;6.0;;;3.7;;
13057;SDS011;6595;49.578;11.012;2023-08-24T10:52:23;8.5;;;4.0;;
13057;SDS011;6595;49.578;11.012;2023-08-24T10:54:29;8.6;;;3.6;;
13057;SDS011;6595;49.578;11.012;2023-08-24T10:56:29;6.4;;;3.2;;
13057;SDS011;6595;49.578;11.012;2023-08-24T10:58:23;6.4;;;3.2;;
13057;SDS011;6595;49.578;11.012;2023-08-24T11:00:25;6.4;;;3.5;;
13057;SDS011;6595;49.578;11.012;2023-08-24T11:02:23;6.4;;;3.5;;
13057;SDS011;6595;49.578;11.012;2023-08-24T11:04:23;5.8;;;3.3;;
13057;SDS011;6595;49.578;11.012;2023-08-24T11:06:26;6.7;;;3.4;;
13057;SDS011;6595;49.578;11.012;2023-08-24T11:08:23;6.7;;;3.4;;
13057;SDS011;6595;49.578;11.012;2023-08-24T11:10:23;6.3;;;3.5;;
13057;SDS011;6595;49.578;11.012;2023-08-24T11:12:23;6.0;;;3.2;;
13057;SDS011;6595;49.578;11.012;2023-08-24T11:14:23;5.1;;;3.2;;
13057;SDS011;6595;49.578;11.012;2023-08-24T11:18:23;5.8;;;3.6;;
13057;SDS011;6595;49.578;11.012;2023-08-24T11:20:23;6.2;;;3.4;;
13057;SDS011;6595;49.578;11.012;2023-08-24T11:22:23;6.2;;;3.4;;
13057;SDS011;6595;49.578;11.012;2023-08-24T11:24:23;7.2;;;3.3;;
13057;SDS011;6595;49.578;11.012;2023-08-24T11:26:23;5.3;;;3.7;;
13057;SDS011;6595;49.578;11.012;2023-08-24T11:28:23;5.3;;;3.7;;
13057;SDS011;6595;49.578;11.012;2023-08-24T11:30:23;5.5;;;3.3;;
13057;SDS011;6595;49.578;11.012;2023-08-24T11:32:23;5.3;;;3.5;;
13057;SDS011;6595;49.578;11.012;2023-08-24T11:34:23;6.6;;;3.3;;
13057;SDS011;6595;49.578;11.012;2023-08-24T11:36:23;5.2;;;3.1;;
13057;SDS011;6595;49.578;11.012;2023-08-24T11:38:24;7.4;;;3.5;;
13057;SDS011;6595;49.578;11.012;2023-08-24T11:40:23;7.4;;;3.5;;
13057;SDS011;6595;49.578;11.012;2023-08-24T11:42:23;5.8;;;3.8;;
13057;SDS011;6595;49.578;11.012;2023-08-24T11:44:24;8.5;;;3.8;;
13057;SDS011;6595;49.578;11.012;2023-08-24T11:46:23;5.0;;;3.4;;
13057;SDS011;6595;49.578;11.012;2023-08-24T11:48:23;5.4;;;3.3;;
13057;SDS011;6595;49.578;11.012;2023-08-24T11:50:23;5.4;;;3.3;;
13057;SDS011;6595;49.578;11.012;2023-08-24T11:52:23;6.0;;;3.6;;
13057;SDS011;6595;49.578;11.012;2023-08-24T11:54:24;6.1;;;3.4;;
13057;SDS011;6595;49.578;11.012;2023-08-24T11:56:23;5.0;;;3.6;;
13057;SDS011;6595;49.578;11.012;2023-08-24T11:58:23;6.5;;;3.1;;
13057;SDS011;6595;49.578;11.012;2023-08-24T12:00:23;6.5;;;3.1;;
13057;SDS011;6595;49.578;11.012;2023-08-24T12:02:24;7.1;;;3.4;;
13057;SDS011;6595;49.578;11.012;2023-08-24T12:04:24;6.1;;;3.4;;
13057;SDS011;6595;49.578;11.012;2023-08-24T12:06:26;5.2;;;3.3;;
13057;SDS011;6595;49.578;11.012;2023-08-24T12:08:24;5.2;;;3.3;;
13057;SDS011;6595;49.578;11.012;2023-08-24T12:10:23;6.7;;;3.6;;
13057;SDS011;6595;49.578;11.012;2023-08-24T12:12:23;5.5;;;3.7;;
13057;SDS011;6595;49.578;11.012;2023-08-24T12:14:23;5.1;;;3.3;;
13057;SDS011;6595;49.578;11.012;2023-08-24T12:16:23;5.7;;;3.6;;
13057;SDS011;6595;49.578;11.012;2023-08-24T12:18:24;5.7;;;3.6;;
13057;SDS011;6595;49.578;11.012;2023-08-24T12:20:24;4.8;;;3.4;;
13057;SDS011;6595;49.578;11.012;2023-08-24T12:22:24;5.3;;;3.6;;
13057;SDS011;6595;49.578;11.012;2023-08-24T12:24:23;4.8;;;3.6;;
13057;SDS011;6595;49.578;11.012;2023-08-24T12:26:23;4.8;;;3.6;;